Time;durP1;ratioP1;P1;durP2;ratioP2;P2;SDS_P1;SDS_P2;PMS_P1;PMS_P2;Temp;Humidity;BMP_temperature;BMP_pressure;BME280_temperature;BME280_humidity;BME280_pressure;Samples;Min_cycle;Max_cycle;Signal;HPM_P1;HPM_P2
2022/05/20 00:02:13;;;;;;;182.48;79.10;;;;;;;11.07;100.00;102091.66;5092854;28;20513;-43
2022/05/20 00:04:38;;;;;;;164.88;72.55;;;;;;;10.94;100.00;102094.50;5092892;28;20032;-43
2022/05/20 00:07:04;;;;;;;163.52;73.28;;;;;;;10.90;100.00;102096.03;5092591;28;20468;-44
2022/05/20 00:09:29;;;;;;;174.02;75.10;;;;;;;10.88;100.00;102092.47;5093060;28;20024;-45
2022/05/20 00:11:55;;;;;;;205.25;83.68;;;;;;;10.93;100.00;102097.88;5092737;28;20028;-42
2022/05/20 00:14:20;;;;;;;223.50;88.57;;;;;;;10.92;100.00;102091.81;5092434;28;20032;-41
2022/05/20 00:16:46;;;;;;;219.10;89.90;;;;;;;10.98;100.00;102091.25;5092485;28;20032;-44
2022/05/20 00:19:12;;;;;;;196.13;81.18;;;;;;;10.86;100.00;102084.66;5092891;28;20097;-41
2022/05/20 00:21:37;;;;;;;174.25;76.38;;;;;;;10.78;100.00;102086.00;5095054;28;20020;-41
2022/05/20 00:24:03;;;;;;;149.75;67.82;;;;;;;10.69;100.00;102089.00;5096876;28;20467;-46
2022/05/20 00:26:28;;;;;;;195.52;79.78;;;;;;;10.76;100.00;102089.31;5097042;28;20028;-43
2022/05/20 00:28:54;;;;;;;207.05;83.90;;;;;;;10.72;100.00;102090.84;5096285;28;20146;-41
2022/05/20 00:31:24;;;;;;;223.85;89.05;;;;;;;10.79;100.00;102094.63;5096751;28;20027;-42
2022/05/20 00:33:50;;;;;;;197.90;82.63;;;;;;;10.73;100.00;102082.31;5096807;28;20089;-44
2022/05/20 00:36:15;;;;;;;153.90;70.40;;;;;;;10.62;100.00;102078.31;5096411;28;20028;-44
2022/05/20 00:38:41;;;;;;;139.13;62.15;;;;;;;10.51;100.00;102076.09;5096596;28;20028;-45
2022/05/20 00:41:08;;;;;;;168.15;75.25;;;;;;;10.57;100.00;102077.22;5096339;28;20020;-41
2022/05/20 00:43:40;;;;;;;188.25;77.72;;;;;;;10.59;100.00;102083.31;5096830;28;20020;-44
2022/05/20 00:46:12;;;;;;;169.25;73.35;;;;;;;10.49;100.00;102082.84;5096331;28;20111;-42
2022/05/20 00:48:39;;;;;;;174.68;75.03;;;;;;;10.49;100.00;102080.28;5096291;28;20020;-41
2022/05/20 00:51:42;;;;;;;159.70;70.75;;;;;;;10.47;100.00;102081.91;5096378;28;20092;-42
2022/05/20 00:54:14;;;;;;;165.30;68.75;;;;;;;10.44;100.00;102076.59;5096069;28;20083;-43
2022/05/20 00:56:52;;;;;;;149.07;66.32;;;;;;;10.32;100.00;102075.97;5095721;28;20024;-44
2022/05/20 00:59:23;;;;;;;139.52;62.33;;;;;;;10.20;100.00;102077.09;5096348;28;20024;-45
2022/05/20 01:01:50;;;;;;;122.38;57.03;;;;;;;10.20;100.00;102071.94;5096143;28;20095;-41
2022/05/20 01:04:16;;;;;;;101.88;51.65;;;;;;;10.11;100.00;102071.50;5095881;28;20035;-41
2022/05/20 01:06:42;;;;;;;158.47;55.40;;;;;;;10.12;100.00;102078.41;5095888;28;20024;-43
2022/05/20 01:09:08;;;;;;;126.07;57.90;;;;;;;10.15;100.00;102078.56;5096123;28;20167;-41
2022/05/20 01:11:36;;;;;;;113.80;55.30;;;;;;;10.08;100.00;102080.75;5096016;28;20043;-40
2022/05/20 01:14:01;;;;;;;95.13;50.28;;;;;;;10.05;100.00;102076.31;5095529;28;20498;-44
2022/05/20 01:16:26;;;;;;;109.20;55.40;;;;;;;10.03;100.00;102077.91;5095670;28;20040;-42
2022/05/20 01:18:53;;;;;;;118.18;57.47;;;;;;;10.01;100.00;102075.28;5095811;28;20062;-45
2022/05/20 01:21:19;;;;;;;146.45;63.80;;;;;;;10.05;100.00;102076.31;5095731;28;20028;-43
2022/05/20 01:23:45;;;;;;;122.72;58.45;;;;;;;10.00;100.00;102080.34;5095055;28;20021;-45
2022/05/20 01:26:11;;;;;;;96.90;50.72;;;;;;;9.98;100.00;102080.28;5095604;28;20129;-45
2022/05/20 01:28:36;;;;;;;117.40;56.63;;;;;;;10.03;100.00;102070.19;5095926;28;20406;-46
2022/05/20 01:31:13;;;;;;;161.05;70.28;;;;;;;10.04;100.00;102077.13;5095165;28;20036;-42
2022/05/20 01:33:42;;;;;;;144.00;65.93;;;;;;;10.04;100.00;102069.38;5094225;28;20027;-42
2022/05/20 01:36:17;;;;;;;119.18;57.90;;;;;;;9.89;100.00;102070.38;5095581;28;20039;-45
2022/05/20 01:38:42;;;;;;;105.97;52.33;;;;;;;9.90;100.00;102060.94;5095193;28;20028;-41
2022/05/20 01:41:11;;;;;;;138.30;61.25;;;;;;;9.95;100.00;102068.91;5095517;28;20024;-44
2022/05/20 01:43:56;;;;;;;159.20;65.82;;;;;;;9.96;100.00;102060.41;5095663;28;20024;-41
2022/05/20 01:46:31;;;;;;;191.07;77.25;;;;;;;9.99;100.00;102066.59;5094893;28;20032;-43
2022/05/20 01:49:17;;;;;;;220.40;82.88;;;;;;;10.06;100.00;102052.34;5095179;28;20047;-44
2022/05/20 01:51:49;;;;;;;216.73;82.75;;;;;;;10.10;100.00;102048.22;5094613;28;20032;-42
2022/05/20 01:54:23;;;;;;;203.00;79.13;;;;;;;10.13;100.00;102046.66;5095252;28;20038;-41
2022/05/20 01:56:54;;;;;;;195.93;80.22;;;;;;;10.16;100.00;102041.69;5094978;28;20437;-41
2022/05/20 01:59:32;;;;;;;223.15;84.75;;;;;;;10.16;100.00;102044.28;5094937;28;20060;-45
2022/05/20 02:02:05;;;;;;;225.73;83.82;;;;;;;10.18;100.00;102046.91;5094873;28;20024;-42
2022/05/20 02:04:44;;;;;;;239.75;87.30;;;;;;;10.17;100.00;102051.19;5095218;28;20102;-43
2022/05/20 02:07:19;;;;;;;232.73;87.15;;;;;;;10.18;100.00;102052.94;5094716;28;20048;-45
2022/05/20 02:09:56;;;;;;;204.80;80.68;;;;;;;10.12;100.00;102055.22;5094697;28;20028;-46
2022/05/20 02:12:25;;;;;;;172.13;75.07;;;;;;;10.10;100.00;102049.09;5095065;28;20095;-46
2022/05/20 02:15:00;;;;;;;161.18;71.95;;;;;;;10.03;100.00;102037.59;5094172;28;20051;-45
2022/05/20 02:17:31;;;;;;;156.23;71.78;;;;;;;10.01;100.00;102040.91;5094687;28;20032;-41
2022/05/20 02:20:00;;;;;;;171.38;73.50;;;;;;;10.03;100.00;102035.03;5093946;28;20034;-45
2022/05/20 02:22:29;;;;;;;178.40;77.47;;;;;;;10.08;100.00;102030.09;5094766;28;20028;-43
2022/05/20 02:24:58;;;;;;;237.57;79.57;;;;;;;10.08;100.00;102029.22;5094782;28;20027;-42
2022/05/20 02:27:29;;;;;;;252.88;80.10;;;;;;;10.05;100.00;102035.09;5094311;28;20106;-42
2022/05/20 02:30:06;;;;;;;187.65;77.93;;;;;;;10.07;100.00;102032.59;5094238;28;20486;-42
2022/05/20 02:32:41;;;;;;;242.90;81.90;;;;;;;10.05;100.00;102040.25;5094542;28;20153;-44
2022/05/20 02:35:06;;;;;;;191.38;74.53;;;;;;;10.01;100.00;102044.38;5094200;28;20024;-40
2022/05/20 02:37:34;;;;;;;205.10;81.25;;;;;;;10.10;100.00;102040.50;5094399;28;20030;-43
2022/05/20 02:40:01;;;;;;;148.23;72.03;;;;;;;9.98;100.00;102028.75;5094049;28;20058;-44
2022/05/20 02:42:28;;;;;;;140.82;71.30;;;;;;;9.98;100.00;102033.00;5093865;28;20031;-45
2022/05/20 02:44:59;;;;;;;137.18;69.13;;;;;;;9.96;100.00;102040.66;5093505;28;20113;-44
2022/05/20 02:47:26;;;;;;;175.85;76.57;;;;;;;10.02;100.00;102034.97;5094313;28;20459;-41
2022/05/20 02:49:51;;;;;;;216.38;76.50;;;;;;;10.00;100.00;102037.44;5093748;28;20103;-42
2022/05/20 02:52:17;;;;;;;203.45;75.38;;;;;;;9.97;100.00;102036.41;5093968;28;20123;-44
2022/05/20 02:54:42;;;;;;;188.60;72.85;;;;;;;9.95;100.00;102033.75;5093443;28;20429;-40
2022/05/20 02:57:07;;;;;;;256.75;81.13;;;;;;;10.00;100.00;102039.13;5094035;28;20030;-40
2022/05/20 03:05:00;;;;;;;205.63;75.72;;;;;;;9.94;100.00;102029.41;5093475;28;20065;-44
2022/05/20 03:07:25;;;;;;;212.80;78.60;;;;;;;9.92;100.00;102027.56;5093855;28;20121;-43
2022/05/20 03:09:53;;;;;;;219.07;75.15;;;;;;;9.88;100.00;102027.41;5093086;28;20467;-44
2022/05/20 03:12:19;;;;;;;206.25;77.13;;;;;;;9.86;100.00;102029.03;5093883;28;20035;-44
2022/05/20 03:14:44;;;;;;;250.85;78.75;;;;;;;9.86;100.00;102022.97;5093611;28;20380;-46
2022/05/20 03:17:10;;;;;;;196.05;80.35;;;;;;;9.94;100.00;102021.69;5093375;28;20020;-42
2022/05/20 03:19:36;;;;;;;225.95;85.57;;;;;;;10.01;100.00;102022.88;5093476;28;20046;-41
2022/05/20 03:22:04;;;;;;;176.50;78.32;;;;;;;9.94;100.00;102020.78;5093527;28;20023;-44
2022/05/20 03:24:30;;;;;;;194.80;78.28;;;;;;;9.95;100.00;102028.59;5092955;28;20027;-43
2022/05/20 03:26:55;;;;;;;265.63;77.28;;;;;;;9.93;100.00;102019.00;5093139;28;20110;-41
2022/05/20 03:29:21;;;;;;;225.85;73.72;;;;;;;9.87;100.00;102020.47;5093663;28;20023;-46
2022/05/20 03:31:47;;;;;;;217.63;77.60;;;;;;;9.84;100.00;102020.31;5092739;28;20024;-45
2022/05/20 03:34:12;;;;;;;178.52;78.60;;;;;;;9.87;100.00;102020.47;5093177;28;20028;-43
2022/05/20 03:36:43;;;;;;;199.82;81.57;;;;;;;9.95;100.00;102028.59;5093230;28;20475;-43
2022/05/20 03:39:12;;;;;;;359.65;79.03;;;;;;;9.86;100.00;102018.72;5092708;28;20024;-44
2022/05/20 03:41:38;;;;;;;186.48;74.15;;;;;;;9.84;100.00;102028.06;5093070;28;20028;-43
2022/05/20 03:44:08;;;;;;;221.30;80.95;;;;;;;9.92;100.00;102025.00;5092718;28;20024;-40
2022/05/20 03:46:40;;;;;;;324.42;78.88;;;;;;;9.86;100.00;102022.97;5093162;28;20032;-44
2022/05/20 03:49:05;;;;;;;215.55;74.18;;;;;;;9.83;100.00;102022.84;5093161;28;20028;-44
2022/05/20 03:51:31;;;;;;;161.00;72.72;;;;;;;9.83;100.00;102023.69;5092551;28;20032;-43
2022/05/20 03:53:56;;;;;;;152.23;71.28;;;;;;;9.87;100.00;102030.78;5092461;28;20043;-40
2022/05/20 03:56:21;;;;;;;153.40;71.45;;;;;;;9.91;100.00;102020.66;5092679;28;20020;-46
2022/05/20 03:58:47;;;;;;;184.32;75.40;;;;;;;9.97;100.00;102015.81;5092470;28;20047;-45
2022/05/20 04:03:56;;;;;;;181.23;71.80;;;;;;;10.01;100.00;102012.59;5092775;28;20042;-42
2022/05/20 04:06:22;;;;;;;185.80;70.63;;;;;;;10.06;100.00;101995.66;5092801;28;20099;-42
2022/05/20 04:08:48;;;;;;;156.63;72.20;;;;;;;10.09;100.00;101993.22;5092656;28;20042;-41
2022/05/20 04:11:13;;;;;;;166.40;71.90;;;;;;;10.12;100.00;101990.84;5093061;28;20032;-41
2022/05/20 04:13:41;;;;;;;241.70;70.93;;;;;;;10.08;100.00;101988.00;5092250;28;20052;-45
2022/05/20 04:16:08;;;;;;;176.07;73.80;;;;;;;10.14;100.00;101985.75;5092643;28;20024;-44
2022/05/20 04:18:33;;;;;;;211.23;74.10;;;;;;;10.14;100.00;101989.19;5092779;28;20420;-43
2022/05/20 04:20:59;;;;;;;217.32;73.28;;;;;;;10.15;100.00;101974.66;5092256;28;20095;-41
2022/05/20 04:23:24;;;;;;;237.40;70.47;;;;;;;10.12;100.00;101970.22;5092622;28;20024;-45
2022/05/20 04:25:49;;;;;;;205.48;70.80;;;;;;;10.11;100.00;101973.59;5092537;28;20458;-44
2022/05/20 04:28:15;;;;;;;193.68;75.07;;;;;;;10.16;100.00;101977.28;5092431;28;20563;-40
2022/05/20 04:30:40;;;;;;;227.98;73.07;;;;;;;10.14;100.00;101976.31;5092424;28;20028;-43
2022/05/20 04:33:06;;;;;;;172.20;74.70;;;;;;;10.20;100.00;101979.19;5092518;28;20036;-41
2022/05/20 04:35:32;;;;;;;183.77;73.30;;;;;;;10.19;100.00;101979.13;5092146;28;20021;-41
2022/05/20 04:37:57;;;;;;;162.18;74.40;;;;;;;10.21;100.00;101970.66;5092588;28;20038;-40
2022/05/20 04:40:22;;;;;;;172.52;77.47;;;;;;;10.28;100.00;101976.13;5092018;28;20094;-43
2022/05/20 04:48:31;;;;;;;155.57;73.70;;;;;;;10.45;100.00;101975.28;5049698;28;20433;-40
2022/05/20 04:50:57;;;;;;;159.15;73.85;;;;;;;10.51;100.00;101987.59;5083147;28;20119;-47
2022/05/20 04:56:06;;;;;;;177.70;77.75;;;;;;;10.64;100.00;102007.06;5091904;28;20054;-41
2022/05/20 04:58:31;;;;;;;188.75;76.75;;;;;;;10.67;100.00;102002.09;5092249;28;20020;-41
2022/05/20 05:00:57;;;;;;;185.07;78.07;;;;;;;10.69;100.00;102006.50;5092343;28;20036;-41
2022/05/20 05:03:22;;;;;;;181.65;76.63;;;;;;;10.80;100.00;102011.28;5092069;28;20017;-40
2022/05/20 05:05:47;;;;;;;170.98;80.95;;;;;;;10.90;100.00;102015.16;5091970;28;20040;-44
2022/05/20 05:08:16;;;;;;;182.88;82.70;;;;;;;10.97;100.00;102022.41;5095703;28;20020;-44
2022/05/20 05:10:42;;;;;;;172.18;81.93;;;;;;;11.02;100.00;102011.47;5095216;28;20051;-40
2022/05/20 05:13:09;;;;;;;183.30;80.07;;;;;;;11.04;100.00;102009.84;5096252;28;20024;-44
2022/05/20 05:15:36;;;;;;;178.90;80.90;;;;;;;11.16;100.00;102006.94;5095773;28;20142;-40
2022/05/20 05:18:13;;;;;;;192.00;85.30;;;;;;;11.24;100.00;102014.16;5095678;28;20286;-42
2022/05/20 05:20:43;;;;;;;;;;;;;;;11.33;100.00;102007.72;5096239;28;20020;-42
2022/05/20 05:23:08;;;;;;;202.63;89.50;;;;;;;11.48;100.00;102002.38;5095407;28;20369;-41
2022/05/20 05:25:35;;;;;;;192.10;84.82;;;;;;;11.51;100.00;101991.28;5095957;28;20510;-43
2022/05/20 05:28:01;;;;;;;210.88;92.82;;;;;;;11.64;100.00;102006.50;5095483;28;20417;-45
2022/05/20 05:30:27;;;;;;;213.07;94.30;;;;;;;11.77;100.00;102004.47;5095381;28;20524;-44
2022/05/20 05:32:52;;;;;;;258.42;104.00;;;;;;;12.01;100.00;101999.50;5095233;28;20028;-41
2022/05/20 05:35:21;;;;;;;222.35;94.10;;;;;;;12.02;100.00;101996.97;5095751;28;20077;-46
2022/05/20 05:37:46;;;;;;;212.32;94.07;;;;;;;12.08;100.00;101988.56;5094811;28;20024;-44
2022/05/20 05:40:16;;;;;;;190.00;88.13;;;;;;;12.13;100.00;101981.91;5095383;28;20058;-41
2022/05/20 05:42:42;;;;;;;194.38;88.05;;;;;;;12.15;100.00;101977.69;5095485;28;20023;-45
2022/05/20 05:45:09;;;;;;;190.27;86.25;;;;;;;12.19;100.00;101984.75;5094977;28;20024;-45
2022/05/20 05:47:34;;;;;;;220.50;97.13;;;;;;;12.30;100.00;101977.44;5095266;28;20029;-43
2022/05/20 05:50:00;;;;;;;217.38;96.93;;;;;;;12.35;100.00;101975.03;5095230;28;20383;-46
2022/05/20 05:52:25;;;;;;;236.10;98.75;;;;;;;12.46;100.00;101973.78;5094696;28;20117;-44
2022/05/20 05:54:51;;;;;;;217.88;96.05;;;;;;;12.47;100.00;101970.38;5094959;28;20085;-42
2022/05/20 05:57:16;;;;;;;223.95;94.03;;;;;;;12.56;100.00;101961.19;5095421;28;20032;-44
2022/05/20 05:59:41;;;;;;;223.23;94.47;;;;;;;12.67;100.00;101960.78;5094253;28;20032;-42
2022/05/20 06:02:08;;;;;;;228.40;96.40;;;;;;;12.80;100.00;101956.97;5095105;28;20050;-45
2022/05/20 06:04:34;;;;;;;235.07;95.72;;;;;;;12.93;100.00;101954.84;5094946;28;20043;-42
2022/05/20 06:07:00;;;;;;;210.05;91.07;;;;;;;12.96;100.00;101970.50;5094428;28;20039;-42
2022/05/20 06:09:26;;;;;;;177.57;80.43;;;;;;;12.97;100.00;101970.53;5095038;28;20379;-44
2022/05/20 06:11:51;;;;;;;171.10;77.50;;;;;;;12.99;100.00;101966.31;5094434;28;20466;-46
2022/05/20 06:14:17;;;;;;;181.82;79.03;;;;;;;13.02;100.00;101950.91;5094837;28;20494;-42
2022/05/20 06:16:42;;;;;;;170.15;75.00;;;;;;;13.06;100.00;101958.78;5094565;28;20386;-41
2022/05/20 06:19:08;;;;;;;162.60;75.15;;;;;;;13.11;100.00;101955.53;5093848;28;20024;-44
2022/05/20 06:21:33;;;;;;;178.73;80.63;;;;;;;13.16;100.00;101972.13;5094595;28;20181;-41
2022/05/20 06:24:01;;;;;;;147.55;67.65;;;;;;;13.20;100.00;101964.47;5094730;28;20024;-41
2022/05/20 06:26:27;;;;;;;143.48;65.07;;;;;;;13.23;100.00;101969.75;5094345;28;20059;-41
2022/05/20 06:28:53;;;;;;;132.02;59.60;;;;;;;13.30;100.00;101956.22;5094294;28;20058;-43
2022/05/20 06:31:18;;;;;;;139.45;62.30;;;;;;;13.36;100.00;101952.97;5094638;28;20028;-41
2022/05/20 06:33:43;;;;;;;115.35;56.67;;;;;;;13.39;100.00;101956.59;5093738;28;20036;-42
2022/05/20 06:41:36;;;;;;;94.28;45.70;;;;;;;13.71;97.63;101943.00;5094391;28;20082;-40
2022/05/20 06:44:02;;;;;;;95.35;47.22;;;;;;;13.82;96.93;101933.88;5093806;28;20032;-41
2022/05/20 06:46:28;;;;;;;95.47;43.00;;;;;;;13.92;96.36;101937.66;5094346;28;20031;-41
2022/05/20 06:48:55;;;;;;;93.78;45.13;;;;;;;14.12;98.73;101926.22;5093068;28;20073;-42
2022/05/20 06:51:24;;;;;;;86.88;41.85;;;;;;;14.23;96.84;101934.34;5094127;28;20441;-45
2022/05/20 06:53:54;;;;;;;80.25;38.35;;;;;;;14.24;94.00;101936.13;5093170;28;20040;-41
2022/05/20 06:56:22;;;;;;;78.95;36.95;;;;;;;14.21;91.46;101936.00;5094164;28;20028;-40
2022/05/20 06:58:47;;;;;;;73.20;37.28;;;;;;;14.20;93.52;101933.38;5093806;28;20031;-46
2022/05/20 07:01:14;;;;;;;76.45;33.90;;;;;;;14.16;92.65;101924.59;5093458;28;20039;-42
2022/05/20 07:03:39;;;;;;;64.97;35.22;;;;;;;14.22;93.69;101921.34;5093688;28;20077;-44
2022/05/20 07:06:05;;;;;;;69.80;37.05;;;;;;;14.44;96.79;101922.91;5093880;28;20425;-39
2022/05/20 07:08:32;;;;;;;67.60;34.75;;;;;;;14.68;95.45;101928.00;5093405;28;20103;-42
2022/05/20 07:11:01;;;;;;;81.80;40.03;;;;;;;14.95;97.80;101917.53;5093234;28;20024;-42
2022/05/20 07:13:27;;;;;;;66.90;34.95;;;;;;;15.17;95.99;101909.47;5093494;28;20468;-42
2022/05/20 07:15:52;;;;;;;54.45;27.10;;;;;;;15.28;86.03;101915.84;5093127;28;20058;-45
2022/05/20 07:18:17;;;;;;;54.85;28.88;;;;;;;15.51;87.52;101908.66;5093623;28;20024;-43
2022/05/20 07:20:43;;;;;;;69.90;33.55;;;;;;;15.73;88.38;101894.50;5093311;28;20048;-42
2022/05/20 07:23:08;;;;;;;57.70;28.15;;;;;;;15.91;85.04;101894.09;5093105;28;20051;-41
2022/05/20 07:25:36;;;;;;;48.85;25.10;;;;;;;15.98;80.40;101894.25;5093449;28;20112;-44
2022/05/20 07:28:01;;;;;;;48.42;27.13;;;;;;;16.06;80.22;101882.31;5093316;28;20031;-41
2022/05/20 07:30:26;;;;;;;46.95;26.30;;;;;;;16.18;79.87;101882.59;5092068;28;20028;-42
2022/05/20 07:32:52;;;;;;;54.70;27.65;;;;;;;16.21;76.30;101884.41;5093109;28;20032;-42
2022/05/20 07:35:17;;;;;;;54.83;29.58;;;;;;;16.39;79.82;101886.53;5093446;28;20449;-43
2022/05/20 07:37:42;;;;;;;54.75;27.48;;;;;;;16.67;78.25;101882.81;5092639;28;20031;-43
2022/05/20 07:40:08;;;;;;;50.67;26.85;;;;;;;16.92;75.80;101881.59;5092999;28;20111;-47
2022/05/20 07:42:33;;;;;;;46.90;26.05;;;;;;;17.09;73.25;101875.84;5093334;28;20083;-46
2022/05/20 07:44:59;;;;;;;48.67;27.60;;;;;;;17.17;72.52;101881.19;5092208;28;20479;-46
2022/05/20 07:47:26;;;;;;;50.28;26.30;;;;;;;17.30;72.32;101874.50;5093450;28;20028;-42
2022/05/20 07:49:51;;;;;;;44.97;25.95;;;;;;;17.44;70.97;101868.69;5093220;28;20028;-46
2022/05/20 07:53:19;;;;;;;48.38;26.52;;;;;;;17.62;69.74;101862.00;5092379;28;20047;-46
2022/05/20 07:55:05;;;;;;;49.30;25.48;;;;;;;17.66;68.85;101858.59;5092943;28;20036;-44
2022/05/20 07:57:31;;;;;;;49.22;27.80;;;;;;;17.77;70.45;101851.84;5092550;28;20045;-46
2022/05/20 07:59:57;;;;;;;44.00;25.13;;;;;;;18.00;68.42;101846.13;5092551;28;20515;-46
2022/05/20 08:02:26;;;;;;;48.63;24.83;;;;;;;18.22;69.42;101851.69;5093092;28;20012;-46
2022/05/20 08:04:55;;;;;;;54.72;27.40;;;;;;;18.24;66.81;101849.94;5092347;28;20028;-47
2022/05/20 08:07:24;;;;;;;52.53;27.70;;;;;;;18.51;67.83;101851.19;5092769;28;20368;-46
2022/05/20 08:09:50;;;;;;;44.70;24.08;;;;;;;18.63;65.63;101846.13;5092660;28;20490;-45
2022/05/20 08:12:15;;;;;;;48.83;25.15;;;;;;;18.83;67.45;101838.50;5092656;28;20032;-42
2022/05/20 08:14:41;;;;;;;46.33;24.98;;;;;;;19.02;66.06;101826.56;5092657;28;20031;-43
2022/05/20 08:17:06;;;;;;;47.75;25.27;;;;;;;19.24;67.27;101834.59;5092937;28;20051;-46
2022/05/20 08:19:33;;;;;;;41.63;22.10;;;;;;;19.25;62.37;101837.22;5092380;28;20024;-43
2022/05/20 08:21:59;;;;;;;43.28;21.42;;;;;;;19.14;60.30;101824.94;5092125;28;20024;-43
2022/05/20 08:24:25;;;;;;;33.50;18.98;;;;;;;19.34;62.42;101835.56;5092784;28;20035;-43
2022/05/20 08:26:50;;;;;;;42.00;23.02;;;;;;;19.38;60.85;101827.75;5091899;28;20460;-42
2022/05/20 08:29:18;;;;;;;46.08;25.13;;;;;;;19.56;64.80;101824.44;5092643;28;20035;-44
2022/05/20 08:31:45;;;;;;;44.78;24.02;;;;;;;19.69;63.09;101820.16;5092547;28;20032;-42
2022/05/20 08:34:11;;;;;;;44.63;23.45;;;;;;;19.65;60.12;101820.13;5091866;28;20471;-46
2022/05/20 08:36:38;;;;;;;44.58;23.60;;;;;;;19.69;60.99;101821.88;5092880;28;20090;-42
2022/05/20 08:39:04;;;;;;;47.77;23.30;;;;;;;19.77;59.72;101815.00;5092642;28;20028;-44
2022/05/20 08:41:37;;;;;;;41.65;23.20;;;;;;;19.98;61.05;101809.03;5092831;28;20099;-43
2022/05/20 08:44:04;;;;;;;41.10;22.88;;;;;;;20.07;61.21;101809.09;5096651;28;20039;-44
2022/05/20 08:46:29;;;;;;;40.40;20.60;;;;;;;20.09;59.80;101803.00;5096263;28;20028;-43
2022/05/20 08:48:57;;;;;;;37.55;19.58;;;;;;;19.94;56.31;101783.72;5096189;28;20078;-46
2022/05/20 08:51:28;;;;;;;37.85;19.88;;;;;;;19.90;58.41;101771.50;5096497;28;20028;-43
2022/05/20 08:53:53;;;;;;;38.08;20.10;;;;;;;19.95;59.00;101761.94;5095631;28;20105;-44
2022/05/20 08:56:21;;;;;;;46.90;21.48;;;;;;;20.10;59.64;101753.28;5096468;28;20024;-46
2022/05/20 08:58:52;;;;;;;39.15;20.65;;;;;;;20.34;60.55;101754.25;5096352;28;20024;-45
2022/05/20 09:01:36;;;;;;;41.15;21.25;;;;;;;20.59;59.44;101747.31;5095868;28;20024;-47
2022/05/20 09:04:02;;;;;;;39.65;20.70;;;;;;;20.62;57.96;101752.59;5095838;28;20059;-42
2022/05/20 09:06:28;;;;;;;41.25;22.30;;;;;;;20.52;56.27;101750.81;5096517;28;20016;-44
2022/05/20 09:09:13;;;;;;;46.83;21.95;;;;;;;20.46;59.95;101758.66;5095605;28;20039;-43
2022/05/20 09:11:41;;;;;;;37.30;21.85;;;;;;;20.37;58.97;101754.25;5096187;28;20024;-44
2022/05/20 09:17:07;;;;;;;43.22;22.67;;;;;;;20.52;57.93;101754.31;5095350;28;20055;-43
2022/05/20 09:19:32;;;;;;;39.22;22.27;;;;;;;20.59;56.32;101744.72;5096184;28;20030;-46
2022/05/20 09:22:29;;;;;;;40.00;22.45;;;;;;;20.89;57.16;101737.84;5094910;28;20032;-46
2022/05/20 09:24:55;;;;;;;53.35;22.23;;;;;;;20.66;56.83;101730.78;5090956;28;20050;-44
2022/05/20 09:27:36;;;;;;;43.05;21.67;;;;;;;20.81;58.60;101718.59;5096171;28;20121;-44
2022/05/20 09:30:06;;;;;;;37.33;20.73;;;;;;;20.83;55.40;101706.38;5095289;28;20130;-47
2022/05/20 09:32:41;;;;;;;40.38;20.67;;;;;;;20.94;56.46;101709.88;5095863;28;20024;-44
2022/05/20 09:35:18;;;;;;;36.45;20.55;;;;;;;20.84;55.96;101689.78;5095579;28;20032;-43
2022/05/20 09:37:44;;;;;;;;;;;;;;;20.91;58.44;101683.66;5095426;28;20109;-42
2022/05/20 09:40:41;;;;;;;38.90;20.75;;;;;;;21.06;57.13;101682.78;5096082;28;19912;-47
2022/05/20 09:43:28;;;;;;;42.67;19.73;;;;;;;21.49;58.33;101682.72;5095083;28;20036;-44
2022/05/20 09:45:59;;;;;;;40.80;19.92;;;;;;;21.84;55.58;101678.25;5095000;28;20027;-45
2022/05/20 09:48:51;;;;;;;41.70;21.50;;;;;;;21.93;55.90;101670.34;5095375;28;20353;-46
2022/05/20 09:51:29;;;;;;;44.95;19.02;;;;;;;21.89;54.44;101667.75;5094725;28;20016;-43
2022/05/20 09:54:21;;;;;;;41.80;19.55;;;;;;;21.80;56.22;101664.28;5094058;28;20062;-45
2022/05/20 09:57:05;;;;;;;31.45;18.67;;;;;;;21.83;56.18;101647.66;5094892;28;20101;-44
2022/05/20 09:59:41;;;;;;;38.55;19.35;;;;;;;22.20;54.36;101634.34;5095167;28;20050;-46
2022/05/20 10:02:19;;;;;;;41.17;19.53;;;;;;;22.43;54.24;101625.47;5095252;28;20133;-45
2022/05/20 10:04:56;;;;;;;34.55;18.10;;;;;;;22.87;52.83;101616.34;5094366;28;20535;-45
2022/05/20 10:07:38;;;;;;;40.78;16.90;;;;;;;23.52;52.69;101615.66;5095179;28;20073;-45
2022/05/20 10:10:12;;;;;;;35.70;18.25;;;;;;;23.76;50.73;101613.63;5095055;28;20024;-46
2022/05/20 10:12:41;;;;;;;31.05;17.13;;;;;;;23.76;48.42;101603.09;5094093;28;20031;-42
2022/05/20 10:15:24;;;;;;;37.30;16.38;;;;;;;23.75;51.75;101601.34;5094834;28;20386;-43
2022/05/20 10:18:01;;;;;;;33.45;16.20;;;;;;;23.93;49.85;101566.91;5094277;28;20039;-43
2022/05/20 10:20:33;;;;;;;36.40;17.27;;;;;;;24.48;48.13;101566.94;5094765;28;20024;-43
2022/05/20 10:23:26;;;;;;;35.65;16.95;;;;;;;24.91;48.72;101557.41;5094762;28;20031;-47
2022/05/20 10:26:32;;;;;;;34.28;16.10;;;;;;;25.44;48.82;101555.47;5094066;28;20077;-44
2022/05/20 10:34:42;;;;;;;44.55;18.65;;;;;;;25.05;45.87;101536.00;5094254;28;20081;-46
2022/05/20 10:37:33;;;;;;;35.67;17.25;;;;;;;24.78;49.22;101527.75;5094459;28;20020;-42
2022/05/20 10:40:20;;;;;;;42.42;19.17;;;;;;;24.48;49.77;101514.22;5093808;28;20024;-43
2022/05/20 10:43:03;;;;;;;33.00;19.58;;;;;;;24.26;48.40;101514.59;5094260;28;20121;-42
2022/05/20 10:48:58;;;;;;;45.15;20.50;;;;;;;23.84;51.16;101480.13;5094268;28;20120;-44
2022/05/20 10:51:43;;;;;;;38.75;20.48;;;;;;;23.86;50.59;101470.47;5094477;28;20027;-45
2022/05/20 10:54:44;;;;;;;36.58;19.67;;;;;;;23.76;51.58;101460.97;5093410;28;20047;-44
2022/05/20 10:57:35;;;;;;;40.72;20.25;;;;;;;23.65;51.38;101437.44;5094371;28;20089;-44
2022/05/20 11:00:16;;;;;;;38.55;20.90;;;;;;;23.51;52.63;101424.47;5093463;28;20039;-42
2022/05/20 11:03:22;;;;;;;40.55;22.48;;;;;;;23.49;52.07;101411.38;5093704;28;20028;-46
2022/05/20 11:06:06;;;;;;;44.17;22.70;;;;;;;23.26;51.30;101392.44;5093768;28;20068;-43
2022/05/20 11:08:37;;;;;;;42.70;23.48;;;;;;;22.95;51.21;101380.53;5093306;28;20032;-43
2022/05/20 11:11:43;;;;;;;44.35;24.15;;;;;;;22.81;52.86;101369.34;5093740;28;20020;-44
2022/05/20 11:14:32;;;;;;;48.67;25.30;;;;;;;22.46;53.63;101363.63;5093319;28;20036;-44
2022/05/20 11:17:31;;;;;;;51.38;26.35;;;;;;;22.44;54.27;101367.16;5093388;28;20142;-46
2022/05/20 11:20:15;;;;;;;42.35;25.50;;;;;;;22.30;55.39;101352.41;5093658;28;20111;-42
2022/05/20 11:23:05;;;;;;;46.90;26.95;;;;;;;22.28;56.46;101358.56;5092706;28;20032;-43
2022/05/20 11:25:43;;;;;;;53.95;31.42;;;;;;;22.16;55.33;101349.09;5093622;28;20028;-44
2022/05/20 11:28:17;;;;;;;57.60;30.98;;;;;;;22.29;56.16;101348.06;5093444;28;20043;-43
2022/05/20 11:30:49;;;;;;;52.97;30.63;;;;;;;22.50;56.45;101332.97;5093099;28;20374;-47
2022/05/20 11:33:32;;;;;;;56.17;30.75;;;;;;;22.70;56.02;101330.09;5093598;28;20032;-43
2022/05/20 11:36:03;;;;;;;67.70;33.90;;;;;;;22.59;56.98;101321.47;5092662;28;20032;-44
2022/05/20 11:38:31;;;;;;;68.57;36.28;;;;;;;22.08;55.94;101322.91;5093418;28;20113;-42
2022/05/20 11:41:18;;;;;;;70.97;37.78;;;;;;;21.77;58.24;101320.59;5093143;28;20039;-42
2022/05/20 11:44:03;;;;;;;64.22;38.30;;;;;;;21.66;59.14;101318.06;5092469;28;20031;-43
2022/05/20 11:47:16;;;;;;;73.35;41.80;;;;;;;21.42;59.16;101323.47;5093211;28;20024;-45
2022/05/20 11:50:29;;;;;;;76.60;42.38;;;;;;;21.11;60.29;101315.84;5070026;28;20033;-42
2022/05/20 11:53:11;;;;;;;80.47;44.72;;;;;;;20.70;60.82;101302.97;5030361;28;20065;-44